sensor_id;sensor_type;location;lat;lon;timestamp;temperature;humidity
19017;DHT22;9641;51.494;6.670;2023-02-11T00:00:17;7.20;99.90
19017;DHT22;9641;51.494;6.670;2023-02-11T00:02:44;7.20;99.90
19017;DHT22;9641;51.494;6.670;2023-02-11T00:05:12;7.20;99.80
19017;DHT22;9641;51.494;6.670;2023-02-11T00:08:00;7.20;99.90
19017;DHT22;9641;51.494;6.670;2023-02-11T00:10:44;7.20;98.70
19017;DHT22;9641;51.494;6.670;2023-02-11T00:13:13;7.20;99.90
19017;DHT22;9641;51.494;6.670;2023-02-11T00:15:42;7.20;99.90
19017;DHT22;9641;51.494;6.670;2023-02-11T00:18:09;7.20;99.90
19017;DHT22;9641;51.494;6.670;2023-02-11T00:20:37;7.20;99.90
19017;DHT22;9641;51.494;6.670;2023-02-11T00:23:04;7.10;99.90
19017;DHT22;9641;51.494;6.670;2023-02-11T00:25:31;7.10;99.90
19017;DHT22;9641;51.494;6.670;2023-02-11T00:27:58;7.10;99.90
19017;DHT22;9641;51.494;6.670;2023-02-11T00:30:25;7.10;99.90
19017;DHT22;9641;51.494;6.670;2023-02-11T00:32:53;7.10;99.90
19017;DHT22;9641;51.494;6.670;2023-02-11T00:35:20;7.20;99.90
19017;DHT22;9641;51.494;6.670;2023-02-11T00:37:47;7.20;98.50
19017;DHT22;9641;51.494;6.670;2023-02-11T00:40:14;7.10;99.90
19017;DHT22;9641;51.494;6.670;2023-02-11T00:42:42;7.20;99.90
19017;DHT22;9641;51.494;6.670;2023-02-11T00:45:09;7.20;94.60
19017;DHT22;9641;51.494;6.670;2023-02-11T00:47:36;7.20;95.60
19017;DHT22;9641;51.494;6.670;2023-02-11T00:50:05;7.20;94.00
19017;DHT22;9641;51.494;6.670;2023-02-11T00:52:32;7.20;94.50
19017;DHT22;9641;51.494;6.670;2023-02-11T00:54:59;7.20;99.50
19017;DHT22;9641;51.494;6.670;2023-02-11T00:57:26;7.10;99.90
19017;DHT22;9641;51.494;6.670;2023-02-11T00:59:53;7.20;98.00
19017;DHT22;9641;51.494;6.670;2023-02-11T01:02:21;7.10;98.60
19017;DHT22;9641;51.494;6.670;2023-02-11T01:04:48;7.20;96.00
19017;DHT22;9641;51.494;6.670;2023-02-11T01:07:16;7.20;97.80
19017;DHT22;9641;51.494;6.670;2023-02-11T01:09:43;7.20;99.20
19017;DHT22;9641;51.494;6.670;2023-02-11T01:12:09;7.20;97.80
19017;DHT22;9641;51.494;6.670;2023-02-11T01:14:38;7.10;98.10
19017;DHT22;9641;51.494;6.670;2023-02-11T01:17:05;7.10;97.60
19017;DHT22;9641;51.494;6.670;2023-02-11T01:19:32;7.10;92.30
19017;DHT22;9641;51.494;6.670;2023-02-11T01:21:58;7.20;95.20
19017;DHT22;9641;51.494;6.670;2023-02-11T01:24:27;7.20;96.00
19017;DHT22;9641;51.494;6.670;2023-02-11T01:26:54;7.10;96.50
19017;DHT22;9641;51.494;6.670;2023-02-11T01:29:23;7.20;93.40
19017;DHT22;9641;51.494;6.670;2023-02-11T01:31:52;7.10;92.10
19017;DHT22;9641;51.494;6.670;2023-02-11T01:34:19;7.10;94.40
19017;DHT22;9641;51.494;6.670;2023-02-11T01:36:46;7.10;97.80
19017;DHT22;9641;51.494;6.670;2023-02-11T01:39:13;7.10;98.30
19017;DHT22;9641;51.494;6.670;2023-02-11T01:41:41;7.10;95.30
19017;DHT22;9641;51.494;6.670;2023-02-11T01:44:23;7.10;95.40
19017;DHT22;9641;51.494;6.670;2023-02-11T01:46:51;7.20;93.20
19017;DHT22;9641;51.494;6.670;2023-02-11T01:49:21;7.10;95.40
19017;DHT22;9641;51.494;6.670;2023-02-11T01:51:52;7.10;99.40
19017;DHT22;9641;51.494;6.670;2023-02-11T01:54:24;7.10;97.90
19017;DHT22;9641;51.494;6.670;2023-02-11T01:57:13;7.10;96.10
19017;DHT22;9641;51.494;6.670;2023-02-11T01:59:58;7.00;99.10
19017;DHT22;9641;51.494;6.670;2023-02-11T02:02:29;7.00;99.90
19017;DHT22;9641;51.494;6.670;2023-02-11T02:05:03;7.00;99.90
19017;DHT22;9641;51.494;6.670;2023-02-11T02:07:35;7.00;99.90
19017;DHT22;9641;51.494;6.670;2023-02-11T02:10:08;7.00;99.90
19017;DHT22;9641;51.494;6.670;2023-02-11T02:12:39;7.00;99.90
19017;DHT22;9641;51.494;6.670;2023-02-11T02:15:34;7.00;99.60
19017;DHT22;9641;51.494;6.670;2023-02-11T02:18:25;7.10;96.40
19017;DHT22;9641;51.494;6.670;2023-02-11T02:21:44;7.00;94.50
19017;DHT22;9641;51.494;6.670;2023-02-11T02:24:38;7.00;97.50
19017;DHT22;9641;51.494;6.670;2023-02-11T02:27:25;7.00;99.90
19017;DHT22;9641;51.494;6.670;2023-02-11T02:33:11;6.90;99.90
19017;DHT22;9641;51.494;6.670;2023-02-11T02:35:44;7.00;99.90
19017;DHT22;9641;51.494;6.670;2023-02-11T02:38:16;7.00;99.90
19017;DHT22;9641;51.494;6.670;2023-02-11T02:40:46;6.90;99.90
19017;DHT22;9641;51.494;6.670;2023-02-11T02:43:16;6.90;99.90
19017;DHT22;9641;51.494;6.670;2023-02-11T02:45:43;7.00;99.90
19017;DHT22;9641;51.494;6.670;2023-02-11T02:48:24;6.90;99.90
19017;DHT22;9641;51.494;6.670;2023-02-11T02:51:02;6.80;99.90
19017;DHT22;9641;51.494;6.670;2023-02-11T02:53:41;6.80;99.90
19017;DHT22;9641;51.494;6.670;2023-02-11T02:56:15;6.80;99.90
19017;DHT22;9641;51.494;6.670;2023-02-11T02:58:56;6.80;99.90
19017;DHT22;9641;51.494;6.670;2023-02-11T03:01:34;6.80;99.90
19017;DHT22;9641;51.494;6.670;2023-02-11T03:04:16;6.70;99.90
19017;DHT22;9641;51.494;6.670;2023-02-11T03:06:48;6.80;99.90
19017;DHT22;9641;51.494;6.670;2023-02-11T03:09:23;6.80;99.90
19017;DHT22;9641;51.494;6.670;2023-02-11T03:11:51;6.80;99.90
19017;DHT22;9641;51.494;6.670;2023-02-11T03:14:19;6.80;99.90
19017;DHT22;9641;51.494;6.670;2023-02-11T03:16:48;6.70;99.90
19017;DHT22;9641;51.494;6.670;2023-02-11T03:19:20;6.70;99.90
19017;DHT22;9641;51.494;6.670;2023-02-11T03:21:48;6.70;99.90
19017;DHT22;9641;51.494;6.670;2023-02-11T03:24:21;6.70;99.90
19017;DHT22;9641;51.494;6.670;2023-02-11T03:26:51;6.60;99.90
19017;DHT22;9641;51.494;6.670;2023-02-11T03:29:26;6.60;99.90
19017;DHT22;9641;51.494;6.670;2023-02-11T03:32:00;6.70;99.90
19017;DHT22;9641;51.494;6.670;2023-02-11T03:34:36;6.70;99.90
19017;DHT22;9641;51.494;6.670;2023-02-11T03:37:08;6.70;99.90
19017;DHT22;9641;51.494;6.670;2023-02-11T03:39:41;6.70;99.90
19017;DHT22;9641;51.494;6.670;2023-02-11T03:42:12;6.70;99.90
19017;DHT22;9641;51.494;6.670;2023-02-11T03:44:45;6.70;99.90
19017;DHT22;9641;51.494;6.670;2023-02-11T03:47:14;6.70;99.90
19017;DHT22;9641;51.494;6.670;2023-02-11T03:49:46;6.70;99.90
19017;DHT22;9641;51.494;6.670;2023-02-11T03:52:17;6.70;99.90
19017;DHT22;9641;51.494;6.670;2023-02-11T03:54:45;6.70;99.90
19017;DHT22;9641;51.494;6.670;2023-02-11T03:57:13;6.60;99.90
19017;DHT22;9641;51.494;6.670;2023-02-11T03:59:51;6.60;99.90
19017;DHT22;9641;51.494;6.670;2023-02-11T04:02:19;6.60;99.90
19017;DHT22;9641;51.494;6.670;2023-02-11T04:04:47;6.60;99.90
19017;DHT22;9641;51.494;6.670;2023-02-11T04:07:14;6.60;99.90
19017;DHT22;9641;51.494;6.670;2023-02-11T04:09:41;6.60;99.90
19017;DHT22;9641;51.494;6.670;2023-02-11T04:12:08;6.60;99.90
19017;DHT22;9641;51.494;6.670;2023-02-11T04:14:35;6.60;99.90
19017;DHT22;9641;51.494;6.670;2023-02-11T04:17:02;6.50;99.90
19017;DHT22;9641;51.494;6.670;2023-02-11T04:19:29;6.50;99.90
19017;DHT22;9641;51.494;6.670;2023-02-11T04:21:57;6.50;99.90
19017;DHT22;9641;51.494;6.670;2023-02-11T04:24:24;6.50;99.90
19017;DHT22;9641;51.494;6.670;2023-02-11T04:26:51;6.50;99.90
19017;DHT22;9641;51.494;6.670;2023-02-11T04:29:18;6.50;99.90
19017;DHT22;9641;51.494;6.670;2023-02-11T04:31:45;6.50;99.90
19017;DHT22;9641;51.494;6.670;2023-02-11T04:34:12;6.50;99.90
19017;DHT22;9641;51.494;6.670;2023-02-11T04:36:39;6.50;99.90
19017;DHT22;9641;51.494;6.670;2023-02-11T04:39:07;6.50;99.90
19017;DHT22;9641;51.494;6.670;2023-02-11T04:41:34;6.50;99.90
19017;DHT22;9641;51.494;6.670;2023-02-11T04:44:01;6.50;99.90
19017;DHT22;9641;51.494;6.670;2023-02-11T04:46:28;6.50;99.90
19017;DHT22;9641;51.494;6.670;2023-02-11T04:49:12;6.50;99.90
19017;DHT22;9641;51.494;6.670;2023-02-11T04:51:39;6.50;99.90
19017;DHT22;9641;51.494;6.670;2023-02-11T04:54:07;6.50;99.90
19017;DHT22;9641;51.494;6.670;2023-02-11T04:56:34;6.50;99.90
19017;DHT22;9641;51.494;6.670;2023-02-11T04:59:01;6.40;99.90
19017;DHT22;9641;51.494;6.670;2023-02-11T05:01:28;6.40;99.90
19017;DHT22;9641;51.494;6.670;2023-02-11T05:03:54;6.50;99.90
19017;DHT22;9641;51.494;6.670;2023-02-11T05:06:22;6.50;99.90
19017;DHT22;9641;51.494;6.670;2023-02-11T05:08:49;6.40;99.90
19017;DHT22;9641;51.494;6.670;2023-02-11T05:11:20;6.40;99.90
19017;DHT22;9641;51.494;6.670;2023-02-11T05:13:47;6.40;99.90
19017;DHT22;9641;51.494;6.670;2023-02-11T05:16:15;6.40;99.90
19017;DHT22;9641;51.494;6.670;2023-02-11T05:18:42;6.40;99.90
19017;DHT22;9641;51.494;6.670;2023-02-11T05:21:12;6.40;99.90
19017;DHT22;9641;51.494;6.670;2023-02-11T05:23:39;6.40;99.90
19017;DHT22;9641;51.494;6.670;2023-02-11T05:26:06;6.50;99.90
19017;DHT22;9641;51.494;6.670;2023-02-11T05:28:36;6.40;99.90
19017;DHT22;9641;51.494;6.670;2023-02-11T05:31:03;6.40;99.90
19017;DHT22;9641;51.494;6.670;2023-02-11T05:33:31;6.40;99.90
19017;DHT22;9641;51.494;6.670;2023-02-11T05:35:58;6.40;99.90
19017;DHT22;9641;51.494;6.670;2023-02-11T05:38:26;6.40;99.90
19017;DHT22;9641;51.494;6.670;2023-02-11T05:40:53;6.40;99.90
19017;DHT22;9641;51.494;6.670;2023-02-11T05:43:21;6.40;99.90
19017;DHT22;9641;51.494;6.670;2023-02-11T05:45:51;6.50;99.90
19017;DHT22;9641;51.494;6.670;2023-02-11T05:48:18;6.50;99.90
19017;DHT22;9641;51.494;6.670;2023-02-11T05:50:45;6.50;99.90
19017;DHT22;9641;51.494;6.670;2023-02-11T05:53:14;6.50;99.90
19017;DHT22;9641;51.494;6.670;2023-02-11T05:55:41;6.50;99.90
19017;DHT22;9641;51.494;6.670;2023-02-11T05:58:08;6.50;99.90
19017;DHT22;9641;51.494;6.670;2023-02-11T06:00:36;6.50;99.90
19017;DHT22;9641;51.494;6.670;2023-02-11T06:03:05;6.50;99.90
19017;DHT22;9641;51.494;6.670;2023-02-11T06:05:33;6.50;99.90
19017;DHT22;9641;51.494;6.670;2023-02-11T06:08:00;6.40;99.90
19017;DHT22;9641;51.494;6.670;2023-02-11T06:10:28;6.40;99.90
19017;DHT22;9641;51.494;6.670;2023-02-11T06:12:55;6.50;99.90
19017;DHT22;9641;51.494;6.670;2023-02-11T06:15:22;6.50;99.90
19017;DHT22;9641;51.494;6.670;2023-02-11T06:17:50;6.50;99.90
19017;DHT22;9641;51.494;6.670;2023-02-11T06:20:18;6.50;99.90
19017;DHT22;9641;51.494;6.670;2023-02-11T06:22:45;6.50;99.90
19017;DHT22;9641;51.494;6.670;2023-02-11T06:25:13;6.50;99.90
19017;DHT22;9641;51.494;6.670;2023-02-11T06:27:40;6.50;99.90
19017;DHT22;9641;51.494;6.670;2023-02-11T06:30:08;6.50;99.90
19017;DHT22;9641;51.494;6.670;2023-02-11T06:32:35;6.50;99.90
19017;DHT22;9641;51.494;6.670;2023-02-11T06:35:02;6.60;99.90
19017;DHT22;9641;51.494;6.670;2023-02-11T06:37:32;6.60;99.90
19017;DHT22;9641;51.494;6.670;2023-02-11T06:39:59;6.60;99.90
19017;DHT22;9641;51.494;6.670;2023-02-11T06:42:27;6.60;99.90
19017;DHT22;9641;51.494;6.670;2023-02-11T06:44:54;6.60;99.90
19017;DHT22;9641;51.494;6.670;2023-02-11T06:47:20;6.50;99.90
19017;DHT22;9641;51.494;6.670;2023-02-11T06:49:47;6.50;99.90
19017;DHT22;9641;51.494;6.670;2023-02-11T06:52:14;6.60;99.90
19017;DHT22;9641;51.494;6.670;2023-02-11T06:54:42;6.60;99.90
19017;DHT22;9641;51.494;6.670;2023-02-11T06:57:09;6.60;99.90
19017;DHT22;9641;51.494;6.670;2023-02-11T06:59:36;6.60;99.90
19017;DHT22;9641;51.494;6.670;2023-02-11T07:02:02;6.60;99.90
19017;DHT22;9641;51.494;6.670;2023-02-11T07:04:29;6.60;99.90
19017;DHT22;9641;51.494;6.670;2023-02-11T07:06:56;6.60;99.90
19017;DHT22;9641;51.494;6.670;2023-02-11T07:09:23;6.70;99.90
19017;DHT22;9641;51.494;6.670;2023-02-11T07:11:51;6.70;99.90
19017;DHT22;9641;51.494;6.670;2023-02-11T07:14:18;6.70;99.90
19017;DHT22;9641;51.494;6.670;2023-02-11T07:16:45;6.60;99.90
19017;DHT22;9641;51.494;6.670;2023-02-11T07:19:12;6.60;99.90
19017;DHT22;9641;51.494;6.670;2023-02-11T07:21:39;6.70;99.90
19017;DHT22;9641;51.494;6.670;2023-02-11T07:24:07;6.70;99.90
19017;DHT22;9641;51.494;6.670;2023-02-11T07:26:34;6.70;99.90
19017;DHT22;9641;51.494;6.670;2023-02-11T07:29:04;6.70;99.90
19017;DHT22;9641;51.494;6.670;2023-02-11T07:31:31;6.70;99.90
19017;DHT22;9641;51.494;6.670;2023-02-11T07:33:59;6.80;99.90
19017;DHT22;9641;51.494;6.670;2023-02-11T07:36:28;6.80;99.90
19017;DHT22;9641;51.494;6.670;2023-02-11T07:38:56;6.80;99.90
19017;DHT22;9641;51.494;6.670;2023-02-11T07:41:23;6.80;99.90
19017;DHT22;9641;51.494;6.670;2023-02-11T07:43:51;6.80;99.90
19017;DHT22;9641;51.494;6.670;2023-02-11T07:46:22;6.80;99.90
19017;DHT22;9641;51.494;6.670;2023-02-11T07:48:49;6.80;99.90
19017;DHT22;9641;51.494;6.670;2023-02-11T07:51:19;6.80;99.90
19017;DHT22;9641;51.494;6.670;2023-02-11T07:53:46;6.80;99.90
19017;DHT22;9641;51.494;6.670;2023-02-11T07:56:14;6.80;99.90
19017;DHT22;9641;51.494;6.670;2023-02-11T07:58:42;6.80;99.90
19017;DHT22;9641;51.494;6.670;2023-02-11T08:01:11;6.90;99.90
19017;DHT22;9641;51.494;6.670;2023-02-11T08:03:40;6.90;99.90
19017;DHT22;9641;51.494;6.670;2023-02-11T08:06:09;6.80;99.90
19017;DHT22;9641;51.494;6.670;2023-02-11T08:08:37;6.90;99.90
19017;DHT22;9641;51.494;6.670;2023-02-11T08:11:08;6.90;99.90
19017;DHT22;9641;51.494;6.670;2023-02-11T08:13:36;6.90;99.90
19017;DHT22;9641;51.494;6.670;2023-02-11T08:16:04;6.90;99.90
19017;DHT22;9641;51.494;6.670;2023-02-11T08:18:31;7.00;99.90
19017;DHT22;9641;51.494;6.670;2023-02-11T08:21:04;7.00;99.90
19017;DHT22;9641;51.494;6.670;2023-02-11T08:23:31;7.00;99.90
19017;DHT22;9641;51.494;6.670;2023-02-11T08:26:00;7.00;99.90
19017;DHT22;9641;51.494;6.670;2023-02-11T08:28:27;7.00;99.90
19017;DHT22;9641;51.494;6.670;2023-02-11T08:30:54;6.90;99.90
19017;DHT22;9641;51.494;6.670;2023-02-11T08:33:21;6.90;99.90
19017;DHT22;9641;51.494;6.670;2023-02-11T08:35:48;7.10;99.90
19017;DHT22;9641;51.494;6.670;2023-02-11T08:38:16;7.20;99.90
19017;DHT22;9641;51.494;6.670;2023-02-11T08:40:43;7.20;99.90
19017;DHT22;9641;51.494;6.670;2023-02-11T08:43:10;7.20;99.90
19017;DHT22;9641;51.494;6.670;2023-02-11T08:45:37;7.20;99.90
19017;DHT22;9641;51.494;6.670;2023-02-11T08:48:05;7.20;99.90
19017;DHT22;9641;51.494;6.670;2023-02-11T08:50:31;7.20;99.90
19017;DHT22;9641;51.494;6.670;2023-02-11T08:52:58;7.20;99.90
19017;DHT22;9641;51.494;6.670;2023-02-11T08:55:27;7.30;99.90
19017;DHT22;9641;51.494;6.670;2023-02-11T08:57:54;7.30;99.90
19017;DHT22;9641;51.494;6.670;2023-02-11T09:00:21;7.40;99.90
19017;DHT22;9641;51.494;6.670;2023-02-11T09:02:48;7.40;99.90
19017;DHT22;9641;51.494;6.670;2023-02-11T09:05:15;7.50;99.90
19017;DHT22;9641;51.494;6.670;2023-02-11T09:07:42;7.50;99.90
19017;DHT22;9641;51.494;6.670;2023-02-11T09:10:09;7.50;99.90
19017;DHT22;9641;51.494;6.670;2023-02-11T09:12:37;7.60;99.90
19017;DHT22;9641;51.494;6.670;2023-02-11T09:15:05;7.50;99.90
19017;DHT22;9641;51.494;6.670;2023-02-11T09:17:32;7.50;99.90
19017;DHT22;9641;51.494;6.670;2023-02-11T09:19:59;7.50;99.90
19017;DHT22;9641;51.494;6.670;2023-02-11T09:22:26;7.50;99.90
19017;DHT22;9641;51.494;6.670;2023-02-11T09:24:53;7.60;99.90
19017;DHT22;9641;51.494;6.670;2023-02-11T09:27:20;7.60;99.90
19017;DHT22;9641;51.494;6.670;2023-02-11T09:29:48;7.70;99.90
19017;DHT22;9641;51.494;6.670;2023-02-11T09:32:15;7.60;99.90
19017;DHT22;9641;51.494;6.670;2023-02-11T09:34:46;7.60;99.90
19017;DHT22;9641;51.494;6.670;2023-02-11T09:37:13;7.60;99.90
19017;DHT22;9641;51.494;6.670;2023-02-11T09:39:43;7.70;99.90
19017;DHT22;9641;51.494;6.670;2023-02-11T09:42:42;7.70;99.90
19017;DHT22;9641;51.494;6.670;2023-02-11T09:45:17;7.70;99.90
19017;DHT22;9641;51.494;6.670;2023-02-11T09:47:52;7.80;99.90
19017;DHT22;9641;51.494;6.670;2023-02-11T09:50:24;7.80;99.90
19017;DHT22;9641;51.494;6.670;2023-02-11T09:52:59;7.80;99.90
19017;DHT22;9641;51.494;6.670;2023-02-11T09:55:29;7.90;99.90
19017;DHT22;9641;51.494;6.670;2023-02-11T09:57:57;7.90;99.90
19017;DHT22;9641;51.494;6.670;2023-02-11T10:00:30;7.90;99.90
19017;DHT22;9641;51.494;6.670;2023-02-11T10:03:32;8.00;99.90
19017;DHT22;9641;51.494;6.670;2023-02-11T10:06:24;7.90;99.90
19017;DHT22;9641;51.494;6.670;2023-02-11T10:09:01;7.90;99.90
19017;DHT22;9641;51.494;6.670;2023-02-11T10:11:38;7.90;99.90
19017;DHT22;9641;51.494;6.670;2023-02-11T10:14:21;8.00;99.90
19017;DHT22;9641;51.494;6.670;2023-02-11T10:17:01;8.10;99.90
19017;DHT22;9641;51.494;6.670;2023-02-11T10:19:41;8.10;99.90
19017;DHT22;9641;51.494;6.670;2023-02-11T10:24:52;8.00;99.90
19017;DHT22;9641;51.494;6.670;2023-02-11T10:27:23;8.10;99.90
19017;DHT22;9641;51.494;6.670;2023-02-11T10:29:57;8.10;99.90
19017;DHT22;9641;51.494;6.670;2023-02-11T10:32:37;8.10;99.90
19017;DHT22;9641;51.494;6.670;2023-02-11T10:35:13;8.10;99.90
19017;DHT22;9641;51.494;6.670;2023-02-11T10:37:42;8.20;99.90
19017;DHT22;9641;51.494;6.670;2023-02-11T10:40:12;8.30;99.90
19017;DHT22;9641;51.494;6.670;2023-02-11T10:42:41;8.30;99.90
19017;DHT22;9641;51.494;6.670;2023-02-11T10:45:18;8.40;99.90
19017;DHT22;9641;51.494;6.670;2023-02-11T10:47:49;8.40;99.90
19017;DHT22;9641;51.494;6.670;2023-02-11T10:50:20;8.50;99.90
19017;DHT22;9641;51.494;6.670;2023-02-11T10:52:48;8.50;99.90
19017;DHT22;9641;51.494;6.670;2023-02-11T10:55:17;8.50;99.90
19017;DHT22;9641;51.494;6.670;2023-02-11T10:57:54;8.50;99.90
19017;DHT22;9641;51.494;6.670;2023-02-11T11:00:38;8.50;99.90
19017;DHT22;9641;51.494;6.670;2023-02-11T11:03:26;8.50;99.90
19017;DHT22;9641;51.494;6.670;2023-02-11T11:05:56;8.50;99.90
19017;DHT22;9641;51.494;6.670;2023-02-11T11:08:53;8.40;99.90
19017;DHT22;9641;51.494;6.670;2023-02-11T11:11:24;8.40;99.90
19017;DHT22;9641;51.494;6.670;2023-02-11T11:13:57;8.40;99.90
19017;DHT22;9641;51.494;6.670;2023-02-11T11:16:35;8.40;99.90
19017;DHT22;9641;51.494;6.670;2023-02-11T11:19:25;8.40;99.90
19017;DHT22;9641;51.494;6.670;2023-02-11T11:22:01;8.60;99.90
19017;DHT22;9641;51.494;6.670;2023-02-11T11:24:52;8.60;99.90
19017;DHT22;9641;51.494;6.670;2023-02-11T11:27:24;8.70;99.90
19017;DHT22;9641;51.494;6.670;2023-02-11T11:29:53;8.70;99.90
19017;DHT22;9641;51.494;6.670;2023-02-11T11:32:35;8.80;99.90
19017;DHT22;9641;51.494;6.670;2023-02-11T11:35:20;8.80;99.90
19017;DHT22;9641;51.494;6.670;2023-02-11T11:37:53;8.80;99.90
19017;DHT22;9641;51.494;6.670;2023-02-11T11:40:31;9.00;99.90
19017;DHT22;9641;51.494;6.670;2023-02-11T11:43:17;9.00;99.90
19017;DHT22;9641;51.494;6.670;2023-02-11T11:45:54;8.90;99.90
19017;DHT22;9641;51.494;6.670;2023-02-11T11:48:38;8.80;99.90
19017;DHT22;9641;51.494;6.670;2023-02-11T11:51:09;8.80;99.90
19017;DHT22;9641;51.494;6.670;2023-02-11T11:53:40;8.90;99.90
19017;DHT22;9641;51.494;6.670;2023-02-11T11:56:15;8.90;99.90
19017;DHT22;9641;51.494;6.670;2023-02-11T11:58:46;8.80;99.90
19017;DHT22;9641;51.494;6.670;2023-02-11T12:01:42;8.80;99.90
19017;DHT22;9641;51.494;6.670;2023-02-11T12:04:21;8.90;99.90
19017;DHT22;9641;51.494;6.670;2023-02-11T12:07:09;8.90;99.90
19017;DHT22;9641;51.494;6.670;2023-02-11T12:09:50;9.00;99.90
19017;DHT22;9641;51.494;6.670;2023-02-11T12:12:31;9.00;99.90
19017;DHT22;9641;51.494;6.670;2023-02-11T12:15:10;9.20;99.90
19017;DHT22;9641;51.494;6.670;2023-02-11T12:17:53;9.30;99.90
19017;DHT22;9641;51.494;6.670;2023-02-11T12:20:29;9.10;99.90
19017;DHT22;9641;51.494;6.670;2023-02-11T12:23:13;9.10;99.90
19017;DHT22;9641;51.494;6.670;2023-02-11T12:25:50;9.00;99.90
19017;DHT22;9641;51.494;6.670;2023-02-11T12:28:28;9.00;99.90
19017;DHT22;9641;51.494;6.670;2023-02-11T12:31:07;9.00;99.90
19017;DHT22;9641;51.494;6.670;2023-02-11T12:33:53;9.10;99.90
19017;DHT22;9641;51.494;6.670;2023-02-11T12:36:33;9.10;99.90
19017;DHT22;9641;51.494;6.670;2023-02-11T12:39:13;9.10;99.90
19017;DHT22;9641;51.494;6.670;2023-02-11T12:42:00;9.10;99.90
19017;DHT22;9641;51.494;6.670;2023-02-11T12:45:03;9.20;99.90
19017;DHT22;9641;51.494;6.670;2023-02-11T12:47:38;9.30;99.90
19017;DHT22;9641;51.494;6.670;2023-02-11T12:50:15;9.30;99.90
19017;DHT22;9641;51.494;6.670;2023-02-11T12:52:54;9.40;99.90
19017;DHT22;9641;51.494;6.670;2023-02-11T12:55:28;9.50;99.90
19017;DHT22;9641;51.494;6.670;2023-02-11T12:57:57;9.50;99.90
19017;DHT22;9641;51.494;6.670;2023-02-11T13:00:27;9.50;99.90
19017;DHT22;9641;51.494;6.670;2023-02-11T13:03:01;9.50;99.90
19017;DHT22;9641;51.494;6.670;2023-02-11T13:05:33;9.50;99.90
19017;DHT22;9641;51.494;6.670;2023-02-11T13:08:08;9.50;99.90
19017;DHT22;9641;51.494;6.670;2023-02-11T13:10:40;9.60;99.90
19017;DHT22;9641;51.494;6.670;2023-02-11T13:13:13;9.80;94.70
19017;DHT22;9641;51.494;6.670;2023-02-11T13:15:47;9.70;99.90
19017;DHT22;9641;51.494;6.670;2023-02-11T13:18:31;9.50;99.90
19017;DHT22;9641;51.494;6.670;2023-02-11T13:21:18;9.40;99.90
19017;DHT22;9641;51.494;6.670;2023-02-11T13:23:53;9.40;99.90
19017;DHT22;9641;51.494;6.670;2023-02-11T13:26:28;9.40;99.90
19017;DHT22;9641;51.494;6.670;2023-02-11T13:29:10;9.50;99.90
19017;DHT22;9641;51.494;6.670;2023-02-11T13:31:41;9.60;99.90
19017;DHT22;9641;51.494;6.670;2023-02-11T13:34:23;9.50;99.90
19017;DHT22;9641;51.494;6.670;2023-02-11T13:36:54;9.40;99.90
19017;DHT22;9641;51.494;6.670;2023-02-11T13:39:21;9.70;99.90
19017;DHT22;9641;51.494;6.670;2023-02-11T13:42:01;9.70;99.90
19017;DHT22;9641;51.494;6.670;2023-02-11T13:44:31;9.80;99.90
19017;DHT22;9641;51.494;6.670;2023-02-11T13:47:00;9.90;99.90
19017;DHT22;9641;51.494;6.670;2023-02-11T13:49:34;10.00;89.60
19017;DHT22;9641;51.494;6.670;2023-02-11T13:52:04;10.00;84.70
19017;DHT22;9641;51.494;6.670;2023-02-11T13:54:34;10.10;69.00
19017;DHT22;9641;51.494;6.670;2023-02-11T13:57:32;10.20;55.80
19017;DHT22;9641;51.494;6.670;2023-02-11T14:00:00;10.30;47.50
19017;DHT22;9641;51.494;6.670;2023-02-11T14:02:31;10.20;29.60
19017;DHT22;9641;51.494;6.670;2023-02-11T14:05:34;10.20;43.40
19017;DHT22;9641;51.494;6.670;2023-02-11T14:08:23;10.30;37.30
19017;DHT22;9641;51.494;6.670;2023-02-11T14:14:16;11.20;1.00
19017;DHT22;9641;51.494;6.670;2023-02-11T14:19:47;12.10;1.00
19017;DHT22;9641;51.494;6.670;2023-02-11T14:22:17;13.00;1.00
19017;DHT22;9641;51.494;6.670;2023-02-11T14:24:48;13.20;1.00
19017;DHT22;9641;51.494;6.670;2023-02-11T14:27:27;12.90;1.00
19017;DHT22;9641;51.494;6.670;2023-02-11T14:33:32;12.20;1.00
19017;DHT22;9641;51.494;6.670;2023-02-11T14:36:11;11.70;1.00
19017;DHT22;9641;51.494;6.670;2023-02-11T14:38:48;11.30;1.00
19017;DHT22;9641;51.494;6.670;2023-02-11T14:41:20;11.10;1.00
19017;DHT22;9641;51.494;6.670;2023-02-11T14:43:51;10.90;1.00
19017;DHT22;9641;51.494;6.670;2023-02-11T14:46:21;10.70;1.00
19017;DHT22;9641;51.494;6.670;2023-02-11T14:48:52;10.60;1.00
19017;DHT22;9641;51.494;6.670;2023-02-11T14:51:27;10.70;1.00
19017;DHT22;9641;51.494;6.670;2023-02-11T14:53:57;10.80;1.00
19017;DHT22;9641;51.494;6.670;2023-02-11T14:56:28;10.80;1.00
19017;DHT22;9641;51.494;6.670;2023-02-11T14:59:02;10.80;1.00
19017;DHT22;9641;51.494;6.670;2023-02-11T15:01:32;10.70;1.00
19017;DHT22;9641;51.494;6.670;2023-02-11T15:04:01;10.70;1.00
19017;DHT22;9641;51.494;6.670;2023-02-11T15:06:31;10.60;1.00
19017;DHT22;9641;51.494;6.670;2023-02-11T15:09:03;10.60;1.00
19017;DHT22;9641;51.494;6.670;2023-02-11T15:11:33;10.60;1.00
19017;DHT22;9641;51.494;6.670;2023-02-11T15:14:07;10.60;1.00
19017;DHT22;9641;51.494;6.670;2023-02-11T15:16:40;10.60;1.00
19017;DHT22;9641;51.494;6.670;2023-02-11T15:19:18;10.60;1.00
19017;DHT22;9641;51.494;6.670;2023-02-11T15:21:47;10.60;1.00
19017;DHT22;9641;51.494;6.670;2023-02-11T15:24:24;10.50;1.00
19017;DHT22;9641;51.494;6.670;2023-02-11T15:27:00;10.50;7.60
19017;DHT22;9641;51.494;6.670;2023-02-11T15:29:36;10.40;25.50
19017;DHT22;9641;51.494;6.670;2023-02-11T15:32:09;10.40;35.70
19017;DHT22;9641;51.494;6.670;2023-02-11T15:34:37;10.30;39.70
19017;DHT22;9641;51.494;6.670;2023-02-11T15:37:05;10.30;33.00
19017;DHT22;9641;51.494;6.670;2023-02-11T15:39:35;10.30;46.30
19017;DHT22;9641;51.494;6.670;2023-02-11T15:42:26;10.30;48.60
19017;DHT22;9641;51.494;6.670;2023-02-11T15:45:09;10.20;72.40
19017;DHT22;9641;51.494;6.670;2023-02-11T15:47:51;10.20;59.10
19017;DHT22;9641;51.494;6.670;2023-02-11T15:50:20;10.20;79.20
19017;DHT22;9641;51.494;6.670;2023-02-11T15:52:49;10.20;71.20
19017;DHT22;9641;51.494;6.670;2023-02-11T15:55:19;10.30;66.60
19017;DHT22;9641;51.494;6.670;2023-02-11T15:57:51;10.20;56.40
19017;DHT22;9641;51.494;6.670;2023-02-11T16:00:21;10.20;62.90
19017;DHT22;9641;51.494;6.670;2023-02-11T16:02:53;10.10;82.10
19017;DHT22;9641;51.494;6.670;2023-02-11T16:05:30;10.10;69.00
19017;DHT22;9641;51.494;6.670;2023-02-11T16:07:59;10.20;69.00
19017;DHT22;9641;51.494;6.670;2023-02-11T16:10:30;10.10;68.10
19017;DHT22;9641;51.494;6.670;2023-02-11T16:13:23;10.00;70.10
19017;DHT22;9641;51.494;6.670;2023-02-11T16:16:00;9.90;99.40
19017;DHT22;9641;51.494;6.670;2023-02-11T16:18:34;9.80;98.00
19017;DHT22;9641;51.494;6.670;2023-02-11T16:21:03;9.80;99.90
19017;DHT22;9641;51.494;6.670;2023-02-11T16:23:33;9.70;99.90
19017;DHT22;9641;51.494;6.670;2023-02-11T16:26:05;9.70;99.90
19017;DHT22;9641;51.494;6.670;2023-02-11T16:28:34;9.70;99.90
19017;DHT22;9641;51.494;6.670;2023-02-11T16:31:03;9.70;99.90
19017;DHT22;9641;51.494;6.670;2023-02-11T16:33:32;9.70;99.90
19017;DHT22;9641;51.494;6.670;2023-02-11T16:35:59;9.60;99.90
19017;DHT22;9641;51.494;6.670;2023-02-11T16:38:29;9.60;99.90
19017;DHT22;9641;51.494;6.670;2023-02-11T16:40:58;9.60;99.90
19017;DHT22;9641;51.494;6.670;2023-02-11T16:43:25;9.60;99.90
19017;DHT22;9641;51.494;6.670;2023-02-11T16:45:54;9.60;99.90